Time;durP1;ratioP1;P1;durP2;ratioP2;P2;SDS_P1;SDS_P2;PMS_P1;PMS_P2;Temp;Humidity;BMP_temperature;BMP_pressure;BME280_temperature;BME280_humidity;BME280_pressure;Samples;Min_cycle;Max_cycle;Signal;HPM_P1;HPM_P2
2022/12/30 00:01:33;;;;;;;25.05;4.40;;;;;;;;;;5099379;28;20497;-73
2022/12/30 00:03:59;;;;;;;23.05;4.28;;;;;;;;;;5112008;28;20051;-72
2022/12/30 00:06:25;;;;;;;21.15;3.53;;;;;;;;;;5123272;27;20039;-73
2022/12/30 00:08:53;;;;;;;25.30;4.40;;;;;;;;;;5114612;28;20040;-74
2022/12/30 00:11:22;;;;;;;26.65;4.90;;;;;;;;;;5114736;28;20054;-72
2022/12/30 00:33:43;;;;;;;19.88;3.58;;;;;;;;;;5093066;28;20044;-73
2022/12/30 00:36:09;;;;;;;26.13;3.42;;;;;;;;;;5121441;27;20048;-73
2022/12/30 00:38:35;;;;;;;27.05;4.13;;;;;;;;;;5102497;28;20055;-73
2022/12/30 00:43:46;;;;;;;21.20;3.00;;;;;;;;;;5097510;28;20049;-73
2022/12/30 00:46:12;;;;;;;29.40;4.30;;;;;;;;;;5110066;28;20067;-72
2022/12/30 00:56:53;;;;;;;22.25;4.32;;;;;;;;;;5092894;28;20040;-73
2022/12/30 00:59:19;;;;;;;23.48;4.68;;;;;;;;;;5094012;28;20097;-72
2022/12/30 01:01:45;;;;;;;24.95;3.70;;;;;;;;;;5106595;28;20048;-74
2022/12/30 01:04:11;;;;;;;27.45;4.20;;;;;;;;;;5109039;27;20051;-73
2022/12/30 01:06:37;;;;;;;21.40;5.07;;;;;;;;;;5115869;27;20047;-73
2022/12/30 01:09:04;;;;;;;25.27;4.00;;;;;;;;;;5096160;28;20043;-73
2022/12/30 01:11:30;;;;;;;21.42;4.03;;;;;;;;;;5093377;28;20494;-73
2022/12/30 01:13:56;;;;;;;20.88;3.63;;;;;;;;;;5095327;28;20036;-73
2022/12/30 01:16:22;;;;;;;28.88;4.45;;;;;;;;;;5113356;28;20096;-73
2022/12/30 01:18:48;;;;;;;30.65;4.72;;;;;;;;;;5112416;28;20043;-74
2022/12/30 01:21:14;;;;;;;21.88;3.70;;;;;;;;;;5113198;28;20161;-73
2022/12/30 01:23:40;;;;;;;22.95;4.47;;;;;;;;;;5113378;28;20051;-73
2022/12/30 01:26:07;;;;;;;19.30;3.97;;;;;;;;;;5115723;28;20052;-73
2022/12/30 01:28:34;;;;;;;21.75;4.07;;;;;;;;;;5115827;27;20119;-73
2022/12/30 01:31:00;;;;;;;22.60;3.47;;;;;;;;;;5116963;28;20044;-74
2022/12/30 01:33:27;;;;;;;27.10;4.22;;;;;;;;;;5116246;28;20085;-74
2022/12/30 01:35:53;;;;;;;20.52;3.60;;;;;;;;;;5122842;27;20044;-73
2022/12/30 01:38:19;;;;;;;25.08;3.85;;;;;;;;;;5116857;28;20055;-73
2022/12/30 01:40:45;;;;;;;20.52;3.83;;;;;;;;;;5113120;28;20490;-72
2022/12/30 01:43:12;;;;;;;18.63;3.28;;;;;;;;;;5096018;28;20043;-72
2022/12/30 01:45:38;;;;;;;23.33;3.58;;;;;;;;;;5097112;28;20410;-72
2022/12/30 01:48:13;;;;;;;27.60;4.15;;;;;;;;;;5104176;28;20068;-72
2022/12/30 01:50:44;;;;;;;21.90;3.58;;;;;;;;;;5105041;28;20051;-72
2022/12/30 01:53:12;;;;;;;19.92;3.15;;;;;;;;;;5109205;28;20043;-73
2022/12/30 01:55:46;;;;;;;26.25;4.25;;;;;;;;;;5110315;28;20498;-73
2022/12/30 01:58:15;;;;;;;20.55;3.80;;;;;;;;;;5096814;28;20124;-72
2022/12/30 02:00:41;;;;;;;20.35;3.05;;;;;;;;;;5101663;28;20059;-73
2022/12/30 02:03:08;;;;;;;18.27;3.40;;;;;;;;;;5111685;27;20119;-72
2022/12/30 02:05:37;;;;;;;21.63;2.97;;;;;;;;;;5126771;27;20036;-72
2022/12/30 02:08:08;;;;;;;22.95;3.35;;;;;;;;;;5095702;28;20468;-72
2022/12/30 02:10:37;;;;;;;17.42;3.35;;;;;;;;;;5101129;28;20107;-73
2022/12/30 02:13:03;;;;;;;24.52;3.05;;;;;;;;;;5112277;28;20047;-73
2022/12/30 02:15:35;;;;;;;22.92;4.05;;;;;;;;;;5112754;28;20043;-72
2022/12/30 02:18:19;;;;;;;23.95;4.22;;;;;;;;;;5105739;28;20036;-72
2022/12/30 02:21:00;;;;;;;21.42;3.25;;;;;;;;;;5116555;28;20052;-72
2022/12/30 02:23:26;;;;;;;24.15;4.25;;;;;;;;;;5116427;28;20044;-72
2022/12/30 02:26:01;;;;;;;17.02;3.75;;;;;;;;;;5116160;28;20051;-72
2022/12/30 02:28:46;;;;;;;23.33;3.67;;;;;;;;;;5125532;27;20043;-73
2022/12/30 02:31:18;;;;;;;22.02;3.25;;;;;;;;;;5129858;27;20089;-72
2022/12/30 02:33:44;;;;;;;18.40;3.50;;;;;;;;;;5121611;27;20481;-72
2022/12/30 02:36:19;;;;;;;21.88;4.50;;;;;;;;;;5103605;27;20047;-72
2022/12/30 02:38:54;;;;;;;27.30;4.10;;;;;;;;;;5109162;27;20036;-72
2022/12/30 02:47:00;;;;;;;28.95;4.03;;;;;;;;;;5105282;28;20048;-72
2022/12/30 02:49:26;;;;;;;;;;;;;;;;;;5101013;28;20047;-72
2022/12/30 02:54:38;;;;;;;27.30;4.35;;;;;;;;;;5095808;28;20123;-72
2022/12/30 02:57:21;;;;;;;20.73;3.78;;;;;;;;;;5111610;27;20047;-72
2022/12/30 03:05:33;;;;;;;24.27;4.85;;;;;;;;;;5098817;28;20047;-72
2022/12/30 03:08:10;;;;;;;21.90;4.13;;;;;;;;;;5107233;28;20066;-72
2022/12/30 03:13:35;;;;;;;22.77;4.03;;;;;;;;;;5094694;28;20072;-72
2022/12/30 03:16:06;;;;;;;27.95;4.75;;;;;;;;;;5113474;28;20043;-72
2022/12/30 03:18:33;;;;;;;26.98;5.07;;;;;;;;;;5103014;28;20036;-73
2022/12/30 03:21:00;;;;;;;22.67;4.30;;;;;;;;;;5089154;28;20069;-73
2022/12/30 03:28:59;;;;;;;17.50;4.80;;;;;;;;;;5094904;28;20040;-73
2022/12/30 03:31:25;;;;;;;22.60;5.03;;;;;;;;;;5104087;28;20044;-73
2022/12/30 03:33:51;;;;;;;21.67;4.78;;;;;;;;;;5115287;28;20455;-73
2022/12/30 03:36:20;;;;;;;22.73;5.57;;;;;;;;;;5117937;27;20046;-73
2022/12/30 03:38:52;;;;;;;21.98;5.18;;;;;;;;;;5115036;28;20054;-73
2022/12/30 03:41:19;;;;;;;26.48;4.93;;;;;;;;;;5115362;28;20541;-74
2022/12/30 03:43:45;;;;;;;25.85;5.60;;;;;;;;;;5113780;28;20459;-73
2022/12/30 03:46:12;;;;;;;19.80;4.68;;;;;;;;;;5106446;28;20039;-73
2022/12/30 03:48:38;;;;;;;20.95;5.30;;;;;;;;;;5113751;28;20114;-73
2022/12/30 03:51:04;;;;;;;23.58;4.68;;;;;;;;;;5100814;28;20047;-72
2022/12/30 03:53:30;;;;;;;23.33;5.03;;;;;;;;;;5101077;27;20054;-73
2022/12/30 03:55:56;;;;;;;24.65;4.75;;;;;;;;;;5105735;27;20044;-73
2022/12/30 03:58:22;;;;;;;19.70;4.80;;;;;;;;;;5124622;27;20043;-73
2022/12/30 04:00:50;;;;;;;23.67;5.38;;;;;;;;;;5099028;28;20059;-73
2022/12/30 04:03:16;;;;;;;19.38;4.65;;;;;;;;;;5098837;28;20050;-73
2022/12/30 04:05:42;;;;;;;21.90;4.00;;;;;;;;;;5109220;28;20526;-73
2022/12/30 04:08:08;;;;;;;23.50;4.40;;;;;;;;;;5108456;28;20036;-72
2022/12/30 04:10:34;;;;;;;28.45;4.85;;;;;;;;;;5094036;28;20056;-72
2022/12/30 04:13:00;;;;;;;23.23;4.03;;;;;;;;;;5092964;28;20122;-73
2022/12/30 04:15:26;;;;;;;20.83;4.00;;;;;;;;;;5101364;28;20044;-72
2022/12/30 04:17:52;;;;;;;24.70;4.28;;;;;;;;;;5094648;28;20383;-72
2022/12/30 04:20:18;;;;;;;17.92;3.83;;;;;;;;;;5106533;28;20405;-73
2022/12/30 04:22:45;;;;;;;25.33;3.80;;;;;;;;;;5093259;28;20036;-73
2022/12/30 04:25:11;;;;;;;19.40;3.75;;;;;;;;;;5093444;28;20087;-72
2022/12/30 04:27:37;;;;;;;19.20;3.92;;;;;;;;;;5109039;28;20509;-73
2022/12/30 04:30:03;;;;;;;21.27;3.80;;;;;;;;;;5109370;28;20425;-73
2022/12/30 04:32:29;;;;;;;16.60;3.58;;;;;;;;;;5097870;27;20176;-72
2022/12/30 04:34:55;;;;;;;20.80;4.43;;;;;;;;;;5099920;28;20039;-72
2022/12/30 04:37:21;;;;;;;19.83;4.20;;;;;;;;;;5093384;28;20048;-73
2022/12/30 04:39:47;;;;;;;14.20;3.50;;;;;;;;;;5108462;28;20070;-72
2022/12/30 04:42:13;;;;;;;18.00;3.90;;;;;;;;;;5095898;28;20055;-73
2022/12/30 04:44:39;;;;;;;17.92;3.33;;;;;;;;;;5092449;28;20046;-73
2022/12/30 04:47:05;;;;;;;23.90;3.90;;;;;;;;;;5094523;28;20044;-72
2022/12/30 04:49:31;;;;;;;15.75;3.55;;;;;;;;;;5111461;28;20097;-72
2022/12/30 04:51:57;;;;;;;18.67;4.30;;;;;;;;;;5098201;28;20055;-73
2022/12/30 04:54:23;;;;;;;18.17;3.78;;;;;;;;;;5094843;28;20101;-72
2022/12/30 04:56:49;;;;;;;21.35;3.80;;;;;;;;;;5110775;28;20039;-73
2022/12/30 04:59:15;;;;;;;14.75;3.13;;;;;;;;;;5098016;28;20043;-73
2022/12/30 05:01:41;;;;;;;17.27;3.30;;;;;;;;;;5091660;28;20106;-73
2022/12/30 05:04:07;;;;;;;21.48;3.60;;;;;;;;;;5094227;28;20482;-73
2022/12/30 05:06:33;;;;;;;20.08;3.92;;;;;;;;;;5103903;28;20048;-72
2022/12/30 05:08:59;;;;;;;16.75;3.42;;;;;;;;;;5101897;28;20539;-72
2022/12/30 05:11:26;;;;;;;18.30;3.28;;;;;;;;;;5094065;28;20486;-72
2022/12/30 05:13:52;;;;;;;20.60;3.85;;;;;;;;;;5092824;28;20591;-72
2022/12/30 05:16:18;;;;;;;20.38;3.97;;;;;;;;;;5093494;28;20047;-72
2022/12/30 05:18:44;;;;;;;20.38;3.70;;;;;;;;;;5112926;28;20130;-72
2022/12/30 05:21:10;;;;;;;12.52;3.03;;;;;;;;;;5101574;28;20489;-73
2022/12/30 05:26:20;;;;;;;15.82;3.22;;;;;;;;;;5111338;28;20047;-72
2022/12/30 05:28:48;;;;;;;15.75;3.03;;;;;;;;;;5112285;28;20500;-72
2022/12/30 05:31:15;;;;;;;19.02;3.22;;;;;;;;;;5112513;28;20112;-72
2022/12/30 05:33:41;;;;;;;19.17;3.53;;;;;;;;;;5110142;28;20096;-72
2022/12/30 05:36:08;;;;;;;20.67;3.58;;;;;;;;;;5113245;28;20466;-73
2022/12/30 05:38:34;;;;;;;20.90;3.67;;;;;;;;;;5129698;27;20524;-73
2022/12/30 05:41:01;;;;;;;18.73;3.50;;;;;;;;;;5133688;27;20039;-73
2022/12/30 05:43:27;;;;;;;20.38;3.95;;;;;;;;;;5116731;27;20417;-72
2022/12/30 05:45:53;;;;;;;19.98;3.67;;;;;;;;;;5114509;28;20039;-72
2022/12/30 05:48:19;;;;;;;18.45;3.20;;;;;;;;;;5110871;28;20093;-73
2022/12/30 05:50:49;;;;;;;15.98;3.35;;;;;;;;;;5104267;28;20039;-73
2022/12/30 05:53:15;;;;;;;19.42;3.75;;;;;;;;;;5097861;28;20044;-72
2022/12/30 05:55:41;;;;;;;19.85;3.42;;;;;;;;;;5091819;28;20105;-72
2022/12/30 05:58:07;;;;;;;21.95;3.63;;;;;;;;;;5093341;28;20047;-72
2022/12/30 06:00:33;;;;;;;18.15;2.78;;;;;;;;;;5103539;28;20036;-73
2022/12/30 06:02:59;;;;;;;19.67;3.70;;;;;;;;;;5092977;28;20040;-72
2022/12/30 06:05:25;;;;;;;21.15;3.45;;;;;;;;;;5093033;28;20040;-72
2022/12/30 06:07:51;;;;;;;23.42;3.33;;;;;;;;;;5100530;28;20043;-72
2022/12/30 06:10:17;;;;;;;18.25;3.33;;;;;;;;;;5099761;28;20085;-72
2022/12/30 06:12:43;;;;;;;16.73;3.22;;;;;;;;;;5100796;28;20047;-72
2022/12/30 06:15:10;;;;;;;19.48;3.78;;;;;;;;;;5097125;28;20040;-73
2022/12/30 06:17:36;;;;;;;17.60;3.40;;;;;;;;;;5111138;28;20040;-73
2022/12/30 06:20:02;;;;;;;20.88;3.72;;;;;;;;;;5096596;28;20101;-72
2022/12/30 06:22:28;;;;;;;19.92;3.85;;;;;;;;;;5095540;28;20497;-73
2022/12/30 06:24:54;;;;;;;19.65;3.15;;;;;;;;;;5104078;28;20046;-74
2022/12/30 06:27:20;;;;;;;19.45;3.83;;;;;;;;;;5098559;28;20435;-73
2022/12/30 06:29:48;;;;;;;15.25;3.05;;;;;;;;;;5103938;28;20047;-72
2022/12/30 06:32:14;;;;;;;22.25;3.80;;;;;;;;;;5105171;27;20051;-73
2022/12/30 06:34:40;;;;;;;15.07;3.17;;;;;;;;;;5102374;27;20097;-73
2022/12/30 06:37:06;;;;;;;21.70;3.67;;;;;;;;;;5095661;28;20044;-73
2022/12/30 06:39:32;;;;;;;24.40;3.95;;;;;;;;;;5097750;28;20051;-73
2022/12/30 06:41:58;;;;;;;18.73;3.83;;;;;;;;;;5110753;27;20486;-73
2022/12/30 06:44:24;;;;;;;17.23;3.30;;;;;;;;;;5096281;28;20436;-72
2022/12/30 06:46:50;;;;;;;18.75;3.20;;;;;;;;;;5106841;28;20420;-74
2022/12/30 06:49:16;;;;;;;14.30;3.20;;;;;;;;;;5113219;28;20097;-73
2022/12/30 06:51:42;;;;;;;19.75;3.05;;;;;;;;;;5094748;28;20047;-73
2022/12/30 06:54:08;;;;;;;19.55;3.38;;;;;;;;;;5102670;28;20042;-73
2022/12/30 06:56:35;;;;;;;21.08;3.60;;;;;;;;;;5104047;28;20048;-73
2022/12/30 06:59:01;;;;;;;15.90;3.40;;;;;;;;;;5104822;28;20040;-74
2022/12/30 07:01:27;;;;;;;18.52;3.25;;;;;;;;;;5098531;28;20411;-73
2022/12/30 07:03:53;;;;;;;19.92;3.67;;;;;;;;;;5111114;27;20044;-73
2022/12/30 07:06:19;;;;;;;18.55;3.10;;;;;;;;;;5108672;27;20055;-73
2022/12/30 07:08:45;;;;;;;18.10;4.03;;;;;;;;;;5098433;28;20043;-72
2022/12/30 07:11:11;;;;;;;19.50;3.13;;;;;;;;;;5111845;28;20051;-73
2022/12/30 07:13:37;;;;;;;22.85;3.70;;;;;;;;;;5115004;28;20047;-74
2022/12/30 07:16:03;;;;;;;16.85;3.30;;;;;;;;;;5108293;28;20048;-73
2022/12/30 07:18:29;;;;;;;18.60;3.30;;;;;;;;;;5111313;28;20085;-73
2022/12/30 07:20:55;;;;;;;18.30;3.53;;;;;;;;;;5116060;27;20039;-73
2022/12/30 07:23:22;;;;;;;20.58;3.33;;;;;;;;;;5093929;28;20048;-73
2022/12/30 07:25:48;;;;;;;22.23;3.85;;;;;;;;;;5126504;27;20082;-73
2022/12/30 07:28:14;;;;;;;16.75;3.15;;;;;;;;;;5115428;28;20040;-73
2022/12/30 07:30:40;;;;;;;15.43;3.15;;;;;;;;;;5110848;28;20042;-73
2022/12/30 07:33:06;;;;;;;20.63;3.30;;;;;;;;;;5110826;28;20485;-73
2022/12/30 07:35:32;;;;;;;16.98;2.88;;;;;;;;;;5109516;28;20062;-73
2022/12/30 07:37:58;;;;;;;19.50;2.97;;;;;;;;;;5104899;28;20047;-74
2022/12/30 07:40:24;;;;;;;19.15;3.50;;;;;;;;;;5101208;28;20054;-74
2022/12/30 07:42:51;;;;;;;20.63;3.30;;;;;;;;;;5110567;28;20070;-73
2022/12/30 07:45:17;;;;;;;19.80;3.35;;;;;;;;;;5109606;28;20051;-73
2022/12/30 07:47:43;;;;;;;22.05;3.47;;;;;;;;;;5105773;28;20050;-74
2022/12/30 07:50:10;;;;;;;17.40;3.25;;;;;;;;;;5110117;28;20046;-74
2022/12/30 07:52:36;;;;;;;17.05;4.13;;;;;;;;;;5104128;28;20580;-74
2022/12/30 07:55:02;;;;;;;22.17;3.85;;;;;;;;;;5107161;28;20101;-73
2022/12/30 07:57:29;;;;;;;18.98;3.55;;;;;;;;;;5110267;27;20116;-73
2022/12/30 07:59:55;;;;;;;20.02;3.60;;;;;;;;;;5110387;28;20078;-74
2022/12/30 08:02:21;;;;;;;13.75;3.10;;;;;;;;;;5110241;28;20043;-75
2022/12/30 08:04:48;;;;;;;18.58;3.17;;;;;;;;;;5108315;28;20040;-74
2022/12/30 08:07:16;;;;;;;22.73;3.63;;;;;;;;;;5112162;28;20369;-74
2022/12/30 08:09:42;;;;;;;19.15;3.20;;;;;;;;;;5111290;28;20514;-74
2022/12/30 08:12:09;;;;;;;18.75;3.42;;;;;;;;;;5094718;28;20044;-74
2022/12/30 08:14:35;;;;;;;23.08;3.50;;;;;;;;;;5106412;28;20806;-73
2022/12/30 08:17:01;;;;;;;16.48;3.30;;;;;;;;;;5111627;28;20051;-74
2022/12/30 08:19:28;;;;;;;16.80;3.63;;;;;;;;;;5110726;28;20039;-74
2022/12/30 08:21:54;;;;;;;19.73;3.40;;;;;;;;;;5110337;28;20497;-74
2022/12/30 08:24:20;;;;;;;19.90;3.40;;;;;;;;;;5106513;28;20048;-75
2022/12/30 08:26:46;;;;;;;17.80;3.67;;;;;;;;;;5112054;28;20055;-73
2022/12/30 08:29:12;;;;;;;23.15;3.65;;;;;;;;;;5113245;28;20035;-75
2022/12/30 08:31:40;;;;;;;22.17;3.60;;;;;;;;;;5102942;28;20077;-76
2022/12/30 08:34:06;;;;;;;23.63;3.67;;;;;;;;;;5093039;28;20044;-73
2022/12/30 08:36:32;;;;;;;15.05;3.92;;;;;;;;;;5111890;28;20055;-75
2022/12/30 08:39:02;;;;;;;16.35;3.35;;;;;;;;;;5112390;28;20051;-74
2022/12/30 08:41:33;;;;;;;20.45;3.90;;;;;;;;;;5115302;27;20111;-76
2022/12/30 08:44:00;;;;;;;16.45;2.97;;;;;;;;;;5112932;28;20554;-74
2022/12/30 08:46:27;;;;;;;18.00;3.10;;;;;;;;;;5112912;28;20062;-72
2022/12/30 08:48:53;;;;;;;23.80;4.15;;;;;;;;;;5101931;28;20051;-72
2022/12/30 08:51:19;;;;;;;21.13;3.30;;;;;;;;;;5107435;28;20043;-73
2022/12/30 08:53:45;;;;;;;13.57;3.30;;;;;;;;;;5108040;28;20122;-72
2022/12/30 08:56:19;;;;;;;23.95;3.65;;;;;;;;;;5111151;28;20410;-74
2022/12/30 08:58:45;;;;;;;16.92;3.38;;;;;;;;;;5110099;28;20092;-72
2022/12/30 09:01:14;;;;;;;21.77;3.60;;;;;;;;;;5109757;28;20059;-74
2022/12/30 09:03:44;;;;;;;17.48;3.00;;;;;;;;;;5106413;28;20442;-74
2022/12/30 09:06:11;;;;;;;14.23;2.97;;;;;;;;;;5111790;28;20050;-74
2022/12/30 09:08:38;;;;;;;74.32;5.60;;;;;;;;;;5110777;28;20118;-73
2022/12/30 09:11:06;;;;;;;17.10;2.90;;;;;;;;;;5104858;28;20043;-70
2022/12/30 09:13:36;;;;;;;19.08;3.75;;;;;;;;;;5111016;28;20485;-73
2022/12/30 09:16:02;;;;;;;19.13;3.17;;;;;;;;;;5111002;28;20150;-73
2022/12/30 09:18:28;;;;;;;19.77;3.10;;;;;;;;;;5113584;28;20040;-74
2022/12/30 09:20:54;;;;;;;17.63;3.15;;;;;;;;;;5112295;28;20055;-72
2022/12/30 09:23:20;;;;;;;14.70;2.95;;;;;;;;;;5110901;28;20052;-73
2022/12/30 09:25:47;;;;;;;19.30;3.40;;;;;;;;;;5111297;28;20452;-72
2022/12/30 09:28:13;;;;;;;14.80;3.10;;;;;;;;;;5103748;28;20388;-72
2022/12/30 09:30:39;;;;;;;17.52;3.38;;;;;;;;;;5103021;28;20097;-73
2022/12/30 09:33:05;;;;;;;20.75;3.20;;;;;;;;;;5101659;27;20043;-72
2022/12/30 09:35:32;;;;;;;17.05;3.25;;;;;;;;;;5120616;27;20181;-71
2022/12/30 09:37:58;;;;;;;14.63;2.88;;;;;;;;;;5115408;27;20495;-72
2022/12/30 09:40:31;;;;;;;17.90;3.63;;;;;;;;;;5108886;28;20062;-72
2022/12/30 09:43:16;;;;;;;12.65;2.78;;;;;;;;;;5104385;28;20040;-71
2022/12/30 09:45:53;;;;;;;13.70;2.53;;;;;;;;;;5091699;28;20048;-73
2022/12/30 09:48:25;;;;;;;14.05;2.72;;;;;;;;;;5100658;28;20043;-69
2022/12/30 09:50:58;;;;;;;16.20;3.17;;;;;;;;;;5112070;28;20040;-70
2022/12/30 09:53:36;;;;;;;17.50;3.08;;;;;;;;;;5114919;27;20047;-71
2022/12/30 09:56:13;;;;;;;12.98;2.65;;;;;;;;;;5106696;28;20044;-70
2022/12/30 09:58:39;;;;;;;13.20;3.33;;;;;;;;;;5107345;28;20056;-70
2022/12/30 10:01:10;;;;;;;16.98;3.40;;;;;;;;;;5107103;28;20043;-70
2022/12/30 10:03:36;;;;;;;16.88;3.08;;;;;;;;;;5107073;28;20059;-70
2022/12/30 10:06:02;;;;;;;15.32;2.90;;;;;;;;;;5100432;27;20062;-70
2022/12/30 10:08:34;;;;;;;13.55;3.05;;;;;;;;;;5110175;27;20040;-70
2022/12/30 10:11:13;;;;;;;17.75;3.13;;;;;;;;;;5101490;27;20383;-70
2022/12/30 10:13:51;;;;;;;13.45;2.95;;;;;;;;;;5099080;27;20091;-70
2022/12/30 10:16:36;;;;;;;13.63;3.17;;;;;;;;;;5098016;27;20039;-70
2022/12/30 10:19:12;;;;;;;11.38;2.80;;;;;;;;;;5108524;27;20085;-70
2022/12/30 10:21:48;;;;;;;15.77;3.15;;;;;;;;;;5111394;28;20097;-70
2022/12/30 10:24:20;;;;;;;19.20;3.67;;;;;;;;;;5111227;28;20578;-70
2022/12/30 10:26:47;;;;;;;14.38;3.10;;;;;;;;;;5097824;28;20043;-72
2022/12/30 10:29:17;;;;;;;14.70;2.85;;;;;;;;;;5094493;28;20052;-70
2022/12/30 10:31:45;;;;;;;9.85;3.00;;;;;;;;;;5112749;27;20043;-70
2022/12/30 10:34:15;;;;;;;14.43;3.28;;;;;;;;;;5112536;27;20574;-70
2022/12/30 10:36:48;;;;;;;11.15;2.83;;;;;;;;;;5113724;28;20052;-70
2022/12/30 10:39:24;;;;;;;14.63;3.45;;;;;;;;;;5115268;27;20051;-70
2022/12/30 10:42:09;;;;;;;14.93;3.05;;;;;;;;;;5106618;27;20052;-70
2022/12/30 10:44:54;;;;;;;14.20;2.88;;;;;;;;;;5101917;27;20105;-71
2022/12/30 10:47:44;;;;;;;13.25;2.53;;;;;;;;;;5095579;28;20051;-70
2022/12/30 10:50:29;;;;;;;13.98;2.70;;;;;;;;;;5096485;28;20043;-69
2022/12/30 10:52:55;;;;;;;10.18;2.78;;;;;;;;;;5108893;28;20447;-69
2022/12/30 10:55:23;;;;;;;15.10;2.95;;;;;;;;;;5109466;27;20062;-69
2022/12/30 10:57:50;;;;;;;10.38;2.42;;;;;;;;;;5130865;27;20566;-69
2022/12/30 11:00:17;;;;;;;11.40;2.97;;;;;;;;;;5115124;28;20119;-69
2022/12/30 11:02:51;;;;;;;10.27;2.42;;;;;;;;;;5108265;28;20506;-69
2022/12/30 11:05:32;;;;;;;10.15;2.50;;;;;;;;;;5114274;27;20382;-70
2022/12/30 11:07:59;;;;;;;8.95;2.30;;;;;;;;;;5114423;28;20032;-71
2022/12/30 11:10:25;;;;;;;14.43;2.47;;;;;;;;;;5109224;28;20097;-69
2022/12/30 11:15:53;;;;;;;16.67;2.83;;;;;;;;;;5099649;27;20056;-69
2022/12/30 11:18:22;;;;;;;12.05;2.97;;;;;;;;;;5104663;28;20044;-70
2022/12/30 11:20:52;;;;;;;14.02;2.10;;;;;;;;;;5106979;28;20085;-70
2022/12/30 11:23:37;;;;;;;12.85;2.13;;;;;;;;;;5106199;27;20375;-70
2022/12/30 11:26:06;;;;;;;12.55;1.90;;;;;;;;;;5103689;28;20044;-70
2022/12/30 11:28:37;;;;;;;7.95;1.80;;;;;;;;;;5109653;28;20504;-71
2022/12/30 11:31:09;;;;;;;10.80;2.50;;;;;;;;;;5104999;28;20051;-71
2022/12/30 11:33:40;;;;;;;11.00;2.45;;;;;;;;;;5111391;28;20058;-70
2022/12/30 11:36:11;;;;;;;10.05;2.35;;;;;;;;;;5102604;28;20036;-70
2022/12/30 11:38:38;;;;;;;8.05;1.95;;;;;;;;;;5130242;27;20058;-70
2022/12/30 11:41:16;;;;;;;9.32;2.10;;;;;;;;;;5125400;27;20089;-70
2022/12/30 11:43:46;;;;;;;7.75;1.75;;;;;;;;;;5113555;28;20047;-69
2022/12/30 11:46:17;;;;;;;10.25;2.33;;;;;;;;;;5103911;27;20510;-71
2022/12/30 11:48:49;;;;;;;9.63;2.07;;;;;;;;;;5109445;28;20130;-70
2022/12/30 11:51:17;;;;;;;10.40;2.00;;;;;;;;;;5113590;28;20044;-71
2022/12/30 11:53:43;;;;;;;9.60;1.90;;;;;;;;;;5108760;28;20051;-70
2022/12/30 11:56:09;;;;;;;8.95;1.92;;;;;;;;;;5112451;28;20123;-70
2022/12/30 11:58:37;;;;;;;10.43;2.33;;;;;;;;;;5112036;28;20051;-70
2022/12/30 12:01:06;;;;;;;9.63;1.83;;;;;;;;;;5112316;28;20512;-70
2022/12/30 12:03:32;;;;;;;6.28;1.80;;;;;;;;;;5103215;28;20079;-70
2022/12/30 12:06:09;;;;;;;10.32;1.85;;;;;;;;;;5103984;28;20105;-70
2022/12/30 12:08:41;;;;;;;11.52;2.53;;;;;;;;;;5096331;28;20166;-70
2022/12/30 12:11:16;;;;;;;9.98;2.05;;;;;;;;;;5098787;28;20048;-70
2022/12/30 12:13:49;;;;;;;10.18;2.45;;;;;;;;;;5104378;28;20078;-70
2022/12/30 12:16:18;;;;;;;8.57;1.85;;;;;;;;;;5112426;28;20556;-70
2022/12/30 12:18:45;;;;;;;8.18;1.80;;;;;;;;;;5110438;28;20115;-70
2022/12/30 12:21:16;;;;;;;8.30;2.05;;;;;;;;;;5113861;28;20043;-70
2022/12/30 12:23:47;;;;;;;12.68;3.40;;;;;;;;;;5110171;27;20168;-69
2022/12/30 12:26:13;;;;;;;9.32;1.98;;;;;;;;;;5093237;28;20055;-70
2022/12/30 12:28:40;;;;;;;6.75;1.40;;;;;;;;;;5093083;28;20127;-70
2022/12/30 12:31:25;;;;;;;7.75;1.45;;;;;;;;;;5109312;27;20039;-70
2022/12/30 12:33:52;;;;;;;8.02;1.55;;;;;;;;;;5113064;27;20055;-69
2022/12/30 12:36:26;;;;;;;10.93;1.80;;;;;;;;;;5114278;27;20047;-70
2022/12/30 12:39:03;;;;;;;6.93;1.60;;;;;;;;;;5119848;27;20044;-70
2022/12/30 12:41:51;;;;;;;6.82;1.50;;;;;;;;;;5112027;28;20046;-70
2022/12/30 12:44:20;;;;;;;8.40;1.88;;;;;;;;;;5113101;28;20092;-70
2022/12/30 12:46:55;;;;;;;7.25;1.40;;;;;;;;;;5112007;28;20040;-69
2022/12/30 12:49:21;;;;;;;6.65;1.67;;;;;;;;;;5115709;27;20048;-70
2022/12/30 12:52:07;;;;;;;8.40;1.30;;;;;;;;;;5111873;28;20044;-70
2022/12/30 12:54:52;;;;;;;6.28;1.48;;;;;;;;;;5112980;28;20051;-70
2022/12/30 12:57:21;;;;;;;7.03;1.30;;;;;;;;;;5112865;28;20401;-69
2022/12/30 12:59:47;;;;;;;7.90;1.48;;;;;;;;;;5103888;28;20119;-70
2022/12/30 13:02:16;;;;;;;9.23;1.75;;;;;;;;;;5090948;28;20094;-70
2022/12/30 13:04:54;;;;;;;8.65;1.70;;;;;;;;;;5110071;28;20052;-69
2022/12/30 13:07:46;;;;;;;8.38;1.58;;;;;;;;;;5094806;28;20143;-71
2022/12/30 13:10:22;;;;;;;8.52;1.25;;;;;;;;;;5105424;28;20143;-70
2022/12/30 13:13:07;;;;;;;7.53;1.40;;;;;;;;;;5110223;28;20089;-70
2022/12/30 13:15:54;;;;;;;8.40;1.40;;;;;;;;;;5092480;28;20491;-70
2022/12/30 13:18:23;;;;;;;8.60;1.45;;;;;;;;;;5103319;28;20096;-70
2022/12/30 13:20:50;;;;;;;9.93;1.80;;;;;;;;;;5110804;28;20096;-70
2022/12/30 13:23:18;;;;;;;8.65;1.38;;;;;;;;;;5112062;28;20082;-70
2022/12/30 13:25:50;;;;;;;8.93;1.60;;;;;;;;;;5114219;28;20047;-70
2022/12/30 13:28:22;;;;;;;14.82;2.10;;;;;;;;;;5111159;27;20087;-69
2022/12/30 13:30:54;;;;;;;9.40;1.67;;;;;;;;;;5106780;28;20127;-70
2022/12/30 13:33:29;;;;;;;9.32;1.90;;;;;;;;;;5116299;28;20138;-70
2022/12/30 13:36:02;;;;;;;7.85;1.42;;;;;;;;;;5116800;28;20043;-70
2022/12/30 13:38:46;;;;;;;6.72;1.67;;;;;;;;;;5105576;28;20508;-71
2022/12/30 13:41:24;;;;;;;7.57;1.92;;;;;;;;;;5096004;28;20639;-70
2022/12/30 13:43:52;;;;;;;6.97;1.40;;;;;;;;;;5095271;28;20487;-70
2022/12/30 13:46:22;;;;;;;9.70;1.83;;;;;;;;;;5096263;28;20043;-70
2022/12/30 13:48:53;;;;;;;7.57;1.35;;;;;;;;;;5096061;28;20056;-70
2022/12/30 13:51:21;;;;;;;7.88;1.63;;;;;;;;;;5126937;27;20162;-70
2022/12/30 13:53:53;;;;;;;7.85;1.52;;;;;;;;;;5120585;27;20055;-70
2022/12/30 13:56:38;;;;;;;8.23;1.65;;;;;;;;;;5116195;28;20051;-71
2022/12/30 13:59:06;;;;;;;8.05;1.63;;;;;;;;;;5116317;28;20128;-70
2022/12/30 14:01:35;;;;;;;10.20;1.90;;;;;;;;;;5115936;28;20513;-70
2022/12/30 14:04:10;;;;;;;11.65;1.90;;;;;;;;;;5108711;28;20430;-70
2022/12/30 14:06:42;;;;;;;8.95;2.47;;;;;;;;;;5112784;28;20044;-70
2022/12/30 14:09:28;;;;;;;7.95;2.47;;;;;;;;;;5112815;27;20107;-70
2022/12/30 14:12:08;;;;;;;9.05;2.40;;;;;;;;;;5114255;28;20421;-70
2022/12/30 14:14:41;;;;;;;10.27;2.10;;;;;;;;;;5115993;28;20090;-70
2022/12/30 14:17:13;;;;;;;9.32;2.20;;;;;;;;;;5115241;28;20044;-72
2022/12/30 14:19:49;;;;;;;7.80;1.95;;;;;;;;;;5114816;28;20098;-69
2022/12/30 14:22:35;;;;;;;12.02;2.22;;;;;;;;;;5103945;27;20059;-70
2022/12/30 14:25:03;;;;;;;7.97;1.58;;;;;;;;;;5094004;28;20067;-70
2022/12/30 14:27:39;;;;;;;8.57;2.03;;;;;;;;;;5097099;27;20087;-70
2022/12/30 14:30:06;;;;;;;8.60;1.55;;;;;;;;;;5138047;27;20054;-71
2022/12/30 14:32:33;;;;;;;8.10;1.45;;;;;;;;;;5137528;27;20553;-71
2022/12/30 14:34:59;;;;;;;11.48;2.20;;;;;;;;;;5137551;27;20047;-70
2022/12/30 14:37:26;;;;;;;6.78;1.45;;;;;;;;;;5132795;27;20153;-70
2022/12/30 14:39:52;;;;;;;7.70;1.73;;;;;;;;;;5107180;28;20442;-70
2022/12/30 14:42:26;;;;;;;8.70;1.70;;;;;;;;;;5113972;27;20260;-71
2022/12/30 14:44:54;;;;;;;9.52;1.63;;;;;;;;;;5103656;28;20044;-71
2022/12/30 14:47:38;;;;;;;11.82;1.98;;;;;;;;;;5108915;27;20043;-72
2022/12/30 14:50:05;;;;;;;9.90;2.05;;;;;;;;;;5137431;27;20120;-72
2022/12/30 14:52:32;;;;;;;9.07;1.80;;;;;;;;;;5120252;27;20052;-71
2022/12/30 14:55:04;;;;;;;8.32;1.95;;;;;;;;;;5116129;27;20050;-69
2022/12/30 14:57:31;;;;;;;7.85;2.13;;;;;;;;;;5114738;28;20439;-70
2022/12/30 15:00:03;;;;;;;8.13;1.75;;;;;;;;;;5114348;27;20047;-70
2022/12/30 15:02:31;;;;;;;7.50;1.63;;;;;;;;;;5112341;28;20063;-70
2022/12/30 15:05:11;;;;;;;7.70;1.52;;;;;;;;;;5112512;28;20051;-71
2022/12/30 15:07:37;;;;;;;8.75;2.10;;;;;;;;;;5114290;28;20112;-71
2022/12/30 15:10:04;;;;;;;8.23;1.92;;;;;;;;;;5114363;28;20147;-71
2022/12/30 15:12:31;;;;;;;5.47;1.50;;;;;;;;;;5112562;28;20108;-69
2022/12/30 15:14:58;;;;;;;9.23;1.92;;;;;;;;;;5114565;28;20052;-71
2022/12/30 15:17:27;;;;;;;7.15;1.95;;;;;;;;;;5108230;28;20039;-71
2022/12/30 15:19:54;;;;;;;9.25;2.55;;;;;;;;;;5109715;28;20044;-71
2022/12/30 15:22:22;;;;;;;7.68;2.35;;;;;;;;;;5100820;28;20048;-71
2022/12/30 15:24:48;;;;;;;8.32;2.33;;;;;;;;;;5103760;28;20123;-70
2022/12/30 15:27:22;;;;;;;8.63;3.38;;;;;;;;;;5098005;27;20493;-69
2022/12/30 15:29:49;;;;;;;9.10;3.60;;;;;;;;;;5093060;28;20127;-71
2022/12/30 15:32:29;;;;;;;12.90;7.88;;;;;;;;;;5097891;28;20036;-70
2022/12/30 15:34:56;;;;;;;9.80;3.45;;;;;;;;;;5112104;28;20044;-70
2022/12/30 15:37:25;;;;;;;8.15;2.42;;;;;;;;;;5112046;28;20047;-70
2022/12/30 15:39:53;;;;;;;10.70;2.30;;;;;;;;;;5106423;28;20397;-69
2022/12/30 15:42:21;;;;;;;8.77;2.35;;;;;;;;;;5103940;27;20048;-69
2022/12/30 15:44:47;;;;;;;6.85;2.20;;;;;;;;;;5112187;28;20036;-69